Time;durP1;ratioP1;P1;durP2;ratioP2;P2;SDS_P1;SDS_P2;PMS_P1;PMS_P2;Temp;Humidity;BMP_temperature;BMP_pressure;BME280_temperature;BME280_humidity;BME280_pressure;Samples;Min_cycle;Max_cycle;Signal;HPM_P1;HPM_P2
2022/07/11 00:01:56;;;;;;;1.60;1.00;;;;;;;12.73;84.09;96917.22;5037341;28;20211;-72
2022/07/11 00:04:23;;;;;;;1.70;0.90;;;;;;;12.83;84.43;96912.53;5037123;28;20983;-72
2022/07/11 00:06:50;;;;;;;1.23;0.90;;;;;;;12.78;84.52;96910.41;5036720;28;20209;-71
2022/07/11 00:09:17;;;;;;;1.20;0.90;;;;;;;12.75;84.44;96909.09;5036909;28;20228;-72
2022/07/11 00:11:43;;;;;;;3.00;0.85;;;;;;;12.98;83.35;96908.16;5037449;28;20211;-72
2022/07/11 00:14:10;;;;;;;1.33;0.90;;;;;;;12.78;82.15;96901.66;5036388;28;21034;-72
2022/07/11 00:16:36;;;;;;;2.30;1.00;;;;;;;12.53;83.36;96907.25;5036629;28;20209;-72
2022/07/11 00:19:04;;;;;;;2.53;0.95;;;;;;;12.88;84.01;96903.09;5036925;28;20211;-72
2022/07/11 00:21:33;;;;;;;2.35;0.93;;;;;;;12.95;83.38;96905.88;5036707;28;20212;-72
2022/07/11 00:24:00;;;;;;;1.20;0.85;;;;;;;12.63;83.25;96905.22;5035885;28;20228;-72
2022/07/11 00:26:27;;;;;;;1.80;0.90;;;;;;;12.62;84.79;96901.72;5037094;28;20200;-73
2022/07/11 00:28:53;;;;;;;0.90;0.80;;;;;;;12.32;83.83;96912.28;5036725;28;20197;-72
2022/07/11 00:31:20;;;;;;;1.57;0.90;;;;;;;12.40;85.12;96910.44;5036690;28;20215;-72
2022/07/11 00:33:46;;;;;;;3.30;0.93;;;;;;;12.53;85.50;96905.41;5035634;28;20217;-72
2022/07/11 00:36:13;;;;;;;1.60;1.00;;;;;;;12.59;84.63;96904.72;5033980;28;20216;-72
2022/07/11 00:38:41;;;;;;;1.95;1.00;;;;;;;12.42;83.86;96899.69;5036252;28;20209;-72
2022/07/11 00:41:08;;;;;;;1.47;0.90;;;;;;;12.60;84.12;96906.38;5036699;28;20221;-72
2022/07/11 00:43:36;;;;;;;2.13;1.13;;;;;;;12.71;84.09;96913.91;5036155;28;20207;-72
2022/07/11 00:46:03;;;;;;;1.90;1.10;;;;;;;12.73;84.69;96901.34;5036389;28;20205;-72
2022/07/11 00:48:30;;;;;;;1.63;0.88;;;;;;;12.53;84.68;96900.13;5036478;28;20212;-72
2022/07/11 00:50:57;;;;;;;1.45;1.00;;;;;;;12.74;84.95;96894.22;5036316;28;20235;-72
2022/07/11 00:53:25;;;;;;;2.00;1.00;;;;;;;12.51;84.37;96891.56;5036108;28;20201;-72
2022/07/11 00:55:54;;;;;;;1.33;0.90;;;;;;;12.28;84.69;96890.69;5036568;28;20212;-71
2022/07/11 00:58:20;;;;;;;3.03;1.03;;;;;;;12.54;85.57;96885.91;5036524;28;20216;-72
2022/07/11 01:00:47;;;;;;;2.03;1.27;;;;;;;12.61;85.02;96886.84;5036195;28;20221;-72
2022/07/11 01:03:13;;;;;;;1.57;0.80;;;;;;;12.42;84.52;96889.09;5035883;28;20201;-72
2022/07/11 01:05:40;;;;;;;3.63;1.23;;;;;;;12.47;84.11;96889.41;5036293;28;20205;-72
2022/07/11 01:08:07;;;;;;;3.00;1.17;;;;;;;12.52;83.00;96885.25;5036477;28;20962;-72
2022/07/11 01:10:34;;;;;;;2.30;1.10;;;;;;;12.43;83.74;96888.94;5036343;28;20229;-72
2022/07/11 01:13:02;;;;;;;3.00;1.00;;;;;;;12.68;84.25;96871.13;5039911;28;20925;-72
2022/07/11 01:15:29;;;;;;;1.60;1.10;;;;;;;12.36;85.05;96882.69;5041001;28;20205;-72
2022/07/11 01:17:55;;;;;;;1.70;1.10;;;;;;;12.39;84.45;96879.72;5040212;28;20205;-72
2022/07/11 01:20:22;;;;;;;1.90;1.10;;;;;;;12.50;84.61;96879.34;5039808;28;20248;-72
2022/07/11 01:22:53;;;;;;;3.93;1.20;;;;;;;12.60;84.04;96879.94;5039494;28;20237;-72
2022/07/11 01:25:30;;;;;;;1.90;1.10;;;;;;;12.60;84.79;96872.00;5040754;28;20256;-72
2022/07/11 01:27:57;;;;;;;1.00;0.80;;;;;;;12.05;85.22;96872.25;5039779;28;20204;-72
2022/07/11 01:30:25;;;;;;;3.08;1.45;;;;;;;12.17;85.78;96877.81;5040007;28;21062;-72
2022/07/11 01:32:51;;;;;;;2.03;1.20;;;;;;;12.39;85.79;96871.78;5039325;28;20294;-72
2022/07/11 01:35:18;;;;;;;3.27;1.20;;;;;;;12.40;85.36;96877.91;5039930;28;20762;-72
2022/07/11 01:37:44;;;;;;;1.00;0.93;;;;;;;12.27;86.28;96873.16;5037761;28;20228;-73
2022/07/11 01:40:12;;;;;;;1.10;1.00;;;;;;;12.25;86.01;96871.69;5040251;28;20221;-71
2022/07/11 01:42:40;;;;;;;1.30;1.10;;;;;;;12.47;85.52;96868.28;5038951;28;20205;-72
2022/07/11 01:45:07;;;;;;;1.20;1.00;;;;;;;12.34;86.70;96871.47;5039482;28;20208;-72
2022/07/11 01:47:34;;;;;;;2.13;1.02;;;;;;;12.28;87.97;96872.19;5040014;28;20205;-73
2022/07/11 01:50:00;;;;;;;4.23;1.27;;;;;;;12.40;87.64;96876.06;5039765;28;20233;-72
2022/07/11 01:52:28;;;;;;;4.20;1.07;;;;;;;12.55;87.70;96866.41;5038910;28;20210;-72
2022/07/11 01:54:54;;;;;;;1.10;1.00;;;;;;;12.45;88.10;96867.63;5039661;28;20245;-73
2022/07/11 01:57:21;;;;;;;2.47;1.10;;;;;;;12.43;87.60;96869.63;5039671;28;20205;-72
2022/07/11 01:59:49;;;;;;;2.93;1.20;;;;;;;12.44;85.83;96869.44;5039238;28;20240;-72
2022/07/11 02:02:16;;;;;;;3.07;1.10;;;;;;;12.35;87.44;96870.47;5039151;28;20209;-72
2022/07/11 02:04:43;;;;;;;1.57;1.10;;;;;;;12.44;87.93;96874.72;5039466;28;20212;-72
2022/07/11 02:07:11;;;;;;;3.90;1.40;;;;;;;12.68;88.14;96868.47;5038986;28;20213;-71
2022/07/11 02:09:37;;;;;;;2.70;1.20;;;;;;;12.62;87.81;96862.06;5039065;28;20317;-72
2022/07/11 02:12:05;;;;;;;1.67;0.83;;;;;;;12.59;86.91;96861.59;5039527;28;20575;-72
2022/07/11 02:14:31;;;;;;;4.27;1.10;;;;;;;12.65;86.55;96867.00;5037765;28;20204;-72
2022/07/11 02:16:59;;;;;;;1.40;0.97;;;;;;;12.85;86.62;96862.91;5039187;28;20583;-72
2022/07/11 02:19:26;;;;;;;2.07;1.20;;;;;;;12.76;86.72;96865.81;5039100;28;20236;-72
2022/07/11 02:21:52;;;;;;;2.75;1.20;;;;;;;12.77;86.83;96860.34;5038630;28;20223;-72
2022/07/11 02:24:19;;;;;;;1.73;1.00;;;;;;;12.42;87.96;96860.88;5036843;28;21175;-72
2022/07/11 02:26:46;;;;;;;2.10;1.10;;;;;;;12.52;87.36;96864.09;5038691;28;20205;-72
2022/07/11 02:29:12;;;;;;;2.20;1.17;;;;;;;12.72;87.90;96860.03;5040052;28;20205;-72
2022/07/11 02:31:39;;;;;;;2.43;1.17;;;;;;;12.52;87.66;96856.16;5038692;28;20232;-71
2022/07/11 02:34:06;;;;;;;1.50;1.20;;;;;;;12.47;87.67;96855.88;5038175;28;20205;-72
2022/07/11 02:36:33;;;;;;;1.27;1.10;;;;;;;12.64;88.07;96852.16;5036452;28;20278;-72
2022/07/11 02:38:59;;;;;;;1.37;1.20;;;;;;;12.57;88.04;96853.84;5038635;28;20208;-72
2022/07/11 02:41:26;;;;;;;1.60;1.10;;;;;;;12.56;88.01;96852.19;5038476;28;20815;-72
2022/07/11 02:43:52;;;;;;;2.90;1.10;;;;;;;12.64;87.72;96852.16;5038396;28;20205;-72
2022/07/11 02:46:19;;;;;;;2.10;1.40;;;;;;;12.79;88.15;96850.38;5038622;28;20213;-72
2022/07/11 02:48:45;;;;;;;1.50;1.27;;;;;;;12.72;87.17;96852.09;5035158;28;20215;-72
2022/07/11 02:51:13;;;;;;;1.83;1.10;;;;;;;12.52;87.37;96858.81;5038418;28;20570;-73
2022/07/11 02:53:39;;;;;;;1.70;1.30;;;;;;;12.72;87.80;96851.28;5037964;28;20216;-72
2022/07/11 02:56:07;;;;;;;3.60;1.50;;;;;;;12.39;88.23;96855.09;5038398;28;20212;-72
2022/07/11 02:58:33;;;;;;;7.37;1.40;;;;;;;12.60;88.82;96856.16;5038249;28;20212;-72
2022/07/11 03:00:59;;;;;;;2.00;1.40;;;;;;;12.64;89.23;96849.50;5038297;28;20428;-73
2022/07/11 03:03:26;;;;;;;1.70;1.50;;;;;;;12.55;88.97;96850.56;5037977;28;20209;-73
2022/07/11 03:05:52;;;;;;;4.27;1.80;;;;;;;12.57;89.71;96853.03;5038093;28;20212;-72
2022/07/11 03:08:20;;;;;;;1.30;1.20;;;;;;;12.73;88.65;96848.47;5038073;28;20220;-72
2022/07/11 03:10:48;;;;;;;1.57;1.07;;;;;;;12.50;87.23;96846.75;5037996;28;20897;-73
2022/07/11 03:13:15;;;;;;;1.67;1.20;;;;;;;12.32;88.43;96854.97;5037601;28;20295;-72
2022/07/11 03:15:41;;;;;;;1.83;1.33;;;;;;;12.49;89.32;96856.53;5037667;28;20684;-73
2022/07/11 03:18:08;;;;;;;1.67;1.15;;;;;;;12.72;89.09;96852.09;5038150;28;20288;-72
2022/07/11 03:20:35;;;;;;;3.20;1.40;;;;;;;12.60;89.67;96850.88;5035072;28;20229;-73
2022/07/11 03:23:01;;;;;;;1.70;1.23;;;;;;;12.68;90.63;96853.44;5036898;28;20941;-72
2022/07/11 03:25:29;;;;;;;2.05;1.52;;;;;;;12.77;90.62;96855.03;5037961;28;20201;-72
2022/07/11 03:27:56;;;;;;;1.77;1.40;;;;;;;12.80;90.06;96852.03;5037704;28;20213;-72
2022/07/11 03:30:22;;;;;;;2.90;1.23;;;;;;;12.76;90.65;96853.38;5037303;28;20232;-72
2022/07/11 03:32:49;;;;;;;2.22;1.40;;;;;;;12.76;90.53;96847.28;5037230;28;20205;-72
2022/07/11 03:38:00;;;;;;;2.42;1.75;;;;;;;12.81;89.85;96854.50;5034342;28;20659;-71
2022/07/11 03:40:26;;;;;;;1.92;1.23;;;;;;;12.94;89.98;96856.59;5037854;28;20228;-73
2022/07/11 03:42:54;;;;;;;2.20;1.75;;;;;;;13.11;90.31;96842.25;5037334;28;20213;-73
2022/07/11 03:45:21;;;;;;;4.25;1.58;;;;;;;12.90;91.33;96855.31;5036315;28;20201;-72
2022/07/11 03:47:48;;;;;;;1.83;1.52;;;;;;;12.94;90.69;96846.03;5036673;28;20209;-73
2022/07/11 03:50:14;;;;;;;2.10;1.50;;;;;;;12.93;91.05;96852.31;5037030;28;20681;-73
2022/07/11 03:52:41;;;;;;;2.35;1.58;;;;;;;13.03;89.90;96861.66;5036359;28;20677;-73
2022/07/11 03:55:08;;;;;;;2.55;1.83;;;;;;;13.00;90.58;96851.44;5037382;28;20205;-73
2022/07/11 03:57:36;;;;;;;3.55;1.90;;;;;;;13.13;92.65;96850.84;5037191;28;20201;-72
2022/07/11 04:00:05;;;;;;;9.13;1.70;;;;;;;13.19;92.95;96850.13;5036678;28;20241;-73
2022/07/11 04:02:32;;;;;;;4.33;2.20;;;;;;;13.22;92.98;96845.28;5035510;28;20208;-72
2022/07/11 04:04:59;;;;;;;5.88;2.08;;;;;;;13.28;91.98;96843.78;5036458;28;20508;-73
2022/07/11 04:07:25;;;;;;;3.08;1.88;;;;;;;13.32;91.94;96845.88;5036970;28;20201;-72
2022/07/11 04:09:51;;;;;;;7.60;1.83;;;;;;;13.44;91.01;96849.72;5036151;28;20236;-73
2022/07/11 04:12:18;;;;;;;3.57;2.27;;;;;;;13.54;90.94;96840.53;5035665;28;20415;-73
2022/07/11 04:14:45;;;;;;;2.40;1.60;;;;;;;13.63;91.95;96838.63;5036515;28;20467;-72
2022/07/11 04:17:13;;;;;;;5.95;2.00;;;;;;;13.80;91.53;96848.88;5036243;28;20725;-73
2022/07/11 04:19:39;;;;;;;3.67;2.05;;;;;;;13.72;91.25;96840.19;5035968;28;20231;-73
2022/07/11 04:22:05;;;;;;;5.22;2.00;;;;;;;13.63;90.41;96847.41;5036389;28;20205;-73
2022/07/11 04:24:32;;;;;;;4.55;2.20;;;;;;;13.84;90.86;96858.09;5035826;28;20201;-72
2022/07/11 04:26:59;;;;;;;2.17;1.65;;;;;;;14.04;89.86;96853.91;5036279;28;20212;-73
2022/07/11 04:29:25;;;;;;;3.42;2.00;;;;;;;14.07;88.80;96859.66;5036115;28;20229;-72
2022/07/11 04:31:52;;;;;;;8.02;1.90;;;;;;;14.07;86.27;96859.66;5036221;28;20232;-73
2022/07/11 04:34:20;;;;;;;4.45;2.33;;;;;;;14.23;89.45;96853.34;5035501;28;20206;-72
2022/07/11 04:36:47;;;;;;;3.15;2.05;;;;;;;14.31;88.36;96853.28;5033130;28;20209;-72
2022/07/11 04:39:14;;;;;;;2.95;1.90;;;;;;;14.36;89.07;96858.84;5036443;28;20205;-73
2022/07/11 04:41:40;;;;;;;5.28;2.50;;;;;;;14.26;86.93;96853.00;5035732;28;20209;-72
2022/07/11 04:44:07;;;;;;;2.88;2.08;;;;;;;14.36;82.86;96858.84;5035346;28;20208;-72
2022/07/11 04:46:34;;;;;;;4.53;2.17;;;;;;;14.47;83.57;96861.00;5036550;28;20208;-72
2022/07/11 04:49:00;;;;;;;6.45;2.40;;;;;;;14.58;84.35;96858.69;5036508;28;20205;-73
2022/07/11 04:51:28;;;;;;;3.25;1.95;;;;;;;14.72;82.40;96856.00;5036038;28;20450;-73
2022/07/11 04:53:54;;;;;;;6.18;2.17;;;;;;;14.71;83.11;96853.53;5035807;28;20609;-73
2022/07/11 04:56:21;;;;;;;4.32;2.30;;;;;;;14.61;82.36;96852.22;5035758;28;20212;-72
2022/07/11 04:58:48;;;;;;;4.82;2.38;;;;;;;14.60;81.50;96859.34;5035430;28;20212;-73
2022/07/11 05:01:14;;;;;;;4.25;2.28;;;;;;;14.72;79.27;96856.00;5035882;28;20465;-72
2022/07/11 05:03:41;;;;;;;6.05;2.20;;;;;;;14.80;80.60;96855.91;5035784;28;20213;-72
2022/07/11 05:06:07;;;;;;;6.65;2.22;;;;;;;14.94;82.29;96854.19;5035146;28;20629;-72
2022/07/11 05:08:36;;;;;;;10.27;2.20;;;;;;;15.11;79.47;96850.28;5035762;28;20209;-71
2022/07/11 05:11:03;;;;;;;9.32;2.53;;;;;;;15.19;78.76;96856.28;5036073;28;20702;-71
2022/07/11 05:13:29;;;;;;;5.68;2.53;;;;;;;15.11;80.42;96852.94;5035280;28;20205;-71
2022/07/11 05:15:56;;;;;;;5.28;2.83;;;;;;;15.30;81.33;96855.84;5035752;28;20209;-72
2022/07/11 05:18:22;;;;;;;5.15;2.50;;;;;;;15.23;78.03;96854.13;5036300;28;20209;-72
2022/07/11 05:20:49;;;;;;;3.70;2.40;;;;;;;15.32;78.90;96851.13;5036043;28;20639;-71
2022/07/11 05:23:16;;;;;;;3.83;2.70;;;;;;;15.36;78.29;96850.56;5035522;28;20213;-71
2022/07/11 05:25:44;;;;;;;4.15;2.70;;;;;;;15.28;76.39;96855.19;5036445;28;20756;-71
2022/07/11 05:28:10;;;;;;;5.18;2.63;;;;;;;15.17;76.97;96855.66;5036143;28;20209;-72
2022/07/11 05:30:37;;;;;;;6.60;2.78;;;;;;;15.35;77.36;96856.88;5035918;28;20229;-71
2022/07/11 05:33:03;;;;;;;4.07;2.20;;;;;;;15.27;77.50;96859.69;5035610;28;20216;-72
2022/07/11 05:35:30;;;;;;;7.65;2.40;;;;;;;15.49;77.28;96855.16;5036352;28;20209;-71
2022/07/11 05:37:56;;;;;;;4.63;2.10;;;;;;;15.46;79.58;96858.19;5032639;28;20210;-71
2022/07/11 05:40:23;;;;;;;16.52;2.45;;;;;;;15.58;77.89;96856.66;5036053;28;20221;-71
2022/07/11 05:42:51;;;;;;;19.83;3.05;;;;;;;15.74;75.72;96859.03;5035743;28;20223;-72
2022/07/11 05:45:17;;;;;;;5.82;2.30;;;;;;;15.64;76.46;96866.53;5036137;28;20205;-71
2022/07/11 05:47:44;;;;;;;3.78;2.17;;;;;;;15.61;77.95;96869.56;5035940;28;20212;-71
2022/07/11 05:50:10;;;;;;;12.38;2.40;;;;;;;15.64;77.14;96867.31;5035936;28;20233;-72
2022/07/11 05:52:37;;;;;;;5.85;2.20;;;;;;;15.81;75.29;96860.75;5035496;28;21294;-72
2022/07/11 05:55:04;;;;;;;6.78;2.03;;;;;;;15.85;77.76;96862.78;5035617;28;20211;-72
2022/07/11 05:57:30;;;;;;;3.33;2.10;;;;;;;15.70;74.90;96873.72;5034297;28;20387;-72
2022/07/11 05:59:59;;;;;;;4.50;2.22;;;;;;;15.56;77.41;96874.63;5038813;28;20256;-72
2022/07/11 06:02:25;;;;;;;4.13;1.90;;;;;;;15.59;76.65;96871.59;5038578;28;20200;-72
2022/07/11 06:04:52;;;;;;;3.72;2.10;;;;;;;15.37;76.92;96873.44;5038653;28;21095;-71
2022/07/11 06:09:59;;;;;;;6.35;2.03;;;;;;;15.74;77.96;96877.63;5038493;28;20225;-71
2022/07/11 06:12:25;;;;;;;2.80;2.03;;;;;;;15.53;78.18;96878.50;5038594;28;20229;-71
2022/07/11 06:14:51;;;;;;;8.23;2.10;;;;;;;15.72;76.95;96877.00;5037970;28;20213;-71
2022/07/11 06:17:19;;;;;;;4.60;2.30;;;;;;;15.74;77.88;96874.97;5038370;28;20208;-72
2022/07/11 06:19:46;;;;;;;4.00;2.15;;;;;;;15.75;77.69;96873.97;5039023;28;20225;-71
2022/07/11 06:22:14;;;;;;;3.20;1.98;;;;;;;16.01;78.77;96872.31;5038152;28;20209;-72
2022/07/11 06:24:40;;;;;;;6.65;2.42;;;;;;;16.15;77.36;96879.34;5038707;28;20205;-72
2022/07/11 06:27:07;;;;;;;3.17;2.05;;;;;;;16.23;77.18;96874.69;5039672;28;20205;-72
2022/07/11 06:29:33;;;;;;;5.32;2.13;;;;;;;16.44;78.17;96871.97;5038389;28;20225;-72
2022/07/11 06:32:00;;;;;;;3.70;2.13;;;;;;;16.51;79.06;96878.16;5038405;28;20225;-72
2022/07/11 06:34:28;;;;;;;6.05;2.33;;;;;;;16.43;76.22;96878.28;5039526;28;20228;-72
2022/07/11 06:36:54;;;;;;;5.95;2.20;;;;;;;16.32;77.08;96883.34;5036699;28;20205;-72
2022/07/11 06:39:21;;;;;;;7.68;2.35;;;;;;;16.71;75.08;96887.03;5037774;28;20221;-71
2022/07/11 06:41:47;;;;;;;5.28;2.10;;;;;;;16.97;74.53;96879.97;5039003;28;20229;-72
2022/07/11 06:44:14;;;;;;;5.40;2.55;;;;;;;16.95;75.97;96887.31;5036728;28;20595;-72
2022/07/11 06:46:41;;;;;;;2.55;1.90;;;;;;;17.24;74.96;96876.34;5036773;28;20205;-72
2022/07/11 06:49:08;;;;;;;4.88;2.40;;;;;;;17.25;72.95;96876.16;5039056;28;20236;-72
2022/07/11 06:51:36;;;;;;;3.33;2.03;;;;;;;17.52;71.77;96877.81;5038198;28;20233;-71
2022/07/11 06:54:02;;;;;;;2.92;2.00;;;;;;;17.51;73.44;96881.50;5037654;28;20213;-72
2022/07/11 06:56:29;;;;;;;3.70;1.80;;;;;;;17.62;71.49;96870.25;5037969;28;20209;-72
2022/07/11 06:58:58;;;;;;;6.05;2.25;;;;;;;17.57;70.79;96872.72;5038360;28;20590;-72
2022/07/11 07:01:25;;;;;;;6.03;1.80;;;;;;;17.36;72.28;96880.91;5038481;28;20197;-72
2022/07/11 07:03:52;;;;;;;8.50;2.00;;;;;;;17.26;71.69;96879.63;5037638;28;20269;-71
2022/07/11 07:06:19;;;;;;;5.45;2.08;;;;;;;17.47;70.90;96877.63;5035644;28;20734;-71
2022/07/11 07:08:47;;;;;;;4.80;1.55;;;;;;;17.86;69.52;96875.78;5036304;28;20243;-71
2022/07/11 07:11:13;;;;;;;4.25;1.75;;;;;;;17.56;70.48;96879.06;5037605;28;20225;-72
2022/07/11 07:13:40;;;;;;;4.72;1.60;;;;;;;17.95;71.07;96874.53;5036968;28;21261;-71
2022/07/11 07:16:07;;;;;;;5.63;1.58;;;;;;;18.04;70.60;96875.97;5038310;28;20206;-72
2022/07/11 07:18:33;;;;;;;5.13;1.73;;;;;;;18.25;72.06;96880.28;5038360;28;20252;-72
2022/07/11 07:21:00;;;;;;;11.98;1.80;;;;;;;18.40;69.15;96876.31;5037480;28;20245;-72
2022/07/11 07:23:26;;;;;;;4.10;1.90;;;;;;;18.24;68.74;96878.63;5037154;28;20957;-72
2022/07/11 07:25:54;;;;;;;6.00;1.67;;;;;;;18.64;69.38;96872.97;5038028;28;20201;-72
2022/07/11 07:28:20;;;;;;;2.28;1.30;;;;;;;18.88;67.94;96874.94;5037870;28;20201;-72
2022/07/11 07:30:47;;;;;;;3.67;1.30;;;;;;;18.91;65.33;96872.63;5037702;28;20236;-72
2022/07/11 07:33:13;;;;;;;4.50;1.77;;;;;;;18.97;64.89;96866.44;5037211;28;20225;-71
2022/07/11 07:35:40;;;;;;;6.60;1.38;;;;;;;19.09;66.17;96872.78;5037805;28;20216;-71
2022/07/11 07:38:06;;;;;;;2.95;1.42;;;;;;;19.24;65.68;96862.63;5035331;28;20197;-72
2022/07/11 07:40:33;;;;;;;2.75;1.25;;;;;;;19.20;64.71;96862.22;5037367;28;20225;-71
2022/07/11 07:43:01;;;;;;;4.57;1.77;;;;;;;19.49;64.67;96861.63;5037075;28;20748;-72
2022/07/11 07:45:28;;;;;;;2.83;1.23;;;;;;;19.32;65.17;96865.03;5036560;28;20264;-71
2022/07/11 07:47:54;;;;;;;3.47;1.40;;;;;;;19.57;63.19;96865.91;5036409;28;20216;-70
2022/07/11 07:50:22;;;;;;;5.40;1.90;;;;;;;19.80;62.92;96859.72;5036722;28;20236;-72
2022/07/11 07:52:48;;;;;;;2.75;1.60;;;;;;;19.77;64.62;96865.50;5037585;28;20569;-72
2022/07/11 07:55:15;;;;;;;2.25;1.50;;;;;;;19.59;64.49;96870.00;5036599;28;20205;-71
2022/07/11 07:57:41;;;;;;;2.97;1.67;;;;;;;19.49;64.16;96877.66;5036871;28;20212;-71
2022/07/11 08:02:54;;;;;;;4.72;1.58;;;;;;;19.65;64.92;96869.94;5035607;28;20216;-72
2022/07/11 08:05:21;;;;;;;3.30;1.55;;;;;;;19.34;66.31;96869.13;5036218;28;20205;-72
2022/07/11 08:07:48;;;;;;;5.18;1.73;;;;;;;19.32;64.95;96873.06;5037274;28;20216;-71
2022/07/11 08:10:15;;;;;;;2.10;1.60;;;;;;;19.59;65.53;96870.81;5036330;28;20233;-71
2022/07/11 08:12:41;;;;;;;2.22;1.50;;;;;;;19.86;68.39;96866.06;5035459;28;20431;-71
2022/07/11 08:15:10;;;;;;;2.72;1.42;;;;;;;20.22;67.88;96866.97;5036456;28;20201;-71
2022/07/11 08:17:37;;;;;;;4.93;1.70;;;;;;;20.39;63.63;96865.34;5036135;28;20662;-71
2022/07/11 08:20:04;;;;;;;2.72;1.52;;;;;;;20.07;64.52;96865.69;5035449;28;20232;-71
2022/07/11 08:22:31;;;;;;;4.25;1.20;;;;;;;20.09;63.13;96856.41;5034895;28;20209;-71
2022/07/11 08:24:57;;;;;;;2.65;1.05;;;;;;;20.36;61.76;96860.44;5036334;28;20224;-71
2022/07/11 08:27:24;;;;;;;1.67;1.30;;;;;;;20.48;63.67;96859.50;5036161;28;20212;-71
2022/07/11 08:29:50;;;;;;;5.25;1.33;;;;;;;20.55;62.92;96854.88;5035551;28;20264;-70
2022/07/11 08:32:18;;;;;;;6.07;1.10;;;;;;;20.44;59.65;96866.34;5035455;28;20945;-71
2022/07/11 08:34:45;;;;;;;1.88;1.17;;;;;;;20.46;60.78;96861.56;5036006;28;20301;-71
2022/07/11 08:37:12;;;;;;;2.72;1.20;;;;;;;20.75;63.15;96857.34;5033781;28;20704;-71
2022/07/11 08:39:39;;;;;;;3.42;1.25;;;;;;;20.75;62.04;96860.00;5035473;28;20698;-72
2022/07/11 08:42:05;;;;;;;1.77;0.80;;;;;;;20.70;60.42;96855.31;5035714;28;20208;-71
2022/07/11 08:44:32;;;;;;;2.83;0.80;;;;;;;20.59;59.81;96852.56;5034479;28;20514;-71
2022/07/11 08:47:00;;;;;;;0.93;0.70;;;;;;;20.44;60.21;96844.91;5035132;28;20205;-71
2022/07/11 08:49:28;;;;;;;2.08;1.00;;;;;;;20.44;60.27;96857.47;5035933;28;20725;-71
2022/07/11 08:51:55;;;;;;;2.92;1.15;;;;;;;20.35;60.93;96853.44;5035680;28;20221;-71
2022/07/11 08:54:22;;;;;;;2.97;1.05;;;;;;;20.73;60.33;96846.06;5034747;28;20209;-72
2022/07/11 08:56:49;;;;;;;2.70;1.00;;;;;;;20.95;62.36;96845.31;5035712;28;20232;-72
2022/07/11 08:59:18;;;;;;;2.65;1.00;;;;;;;20.95;60.07;96837.28;5036179;28;20322;-71
2022/07/11 09:01:46;;;;;;;1.13;0.68;;;;;;;21.04;59.23;96827.88;5035762;28;20238;-71
2022/07/11 09:04:13;;;;;;;1.83;0.70;;;;;;;20.79;58.12;96835.25;5034703;28;20213;-71
2022/07/11 09:06:41;;;;;;;0.73;0.60;;;;;;;21.09;59.00;96831.53;5036210;28;20197;-72
2022/07/11 09:09:08;;;;;;;1.00;0.70;;;;;;;21.21;58.86;96826.22;5035486;28;21021;-71
2022/07/11 09:11:50;;;;;;;1.17;0.70;;;;;;;21.55;55.47;96824.47;5035789;28;20205;-72
2022/07/11 09:14:21;;;;;;;1.60;0.80;;;;;;;21.52;59.96;96821.41;5034791;28;20488;-72
2022/07/11 09:16:53;;;;;;;1.25;0.60;;;;;;;21.61;60.14;96825.41;5035787;28;20205;-72
2022/07/11 09:19:24;;;;;;;0.98;0.70;;;;;;;21.74;56.58;96827.88;5035030;28;20253;-72
2022/07/11 09:27:42;;;;;;;2.13;0.68;;;;;;;21.94;57.56;96837.22;5036087;28;20255;-71
2022/07/11 09:30:24;;;;;;;1.00;0.63;;;;;;;22.09;55.04;96834.91;5036521;28;20225;-72
2022/07/11 09:32:59;;;;;;;0.65;0.60;;;;;;;22.13;53.99;96830.69;5037417;28;20229;-73
2022/07/11 09:35:28;;;;;;;0.98;0.65;;;;;;;21.76;59.40;96833.84;5040072;28;20205;-72
2022/07/11 09:37:56;;;;;;;0.80;0.70;;;;;;;21.85;54.91;96837.81;5036617;28;20653;-72
2022/07/11 09:40:25;;;;;;;0.88;0.70;;;;;;;21.91;56.20;96836.88;5039372;28;20720;-72
2022/07/11 09:42:54;;;;;;;6.90;0.93;;;;;;;21.99;57.40;96842.72;5038099;28;20217;-72
2022/07/11 09:45:22;;;;;;;3.60;0.70;;;;;;;21.99;58.14;96839.22;5039414;28;20612;-72
2022/07/11 09:47:50;;;;;;;1.98;0.90;;;;;;;21.76;62.08;96833.84;5039245;28;20206;-75
2022/07/11 09:50:21;;;;;;;1.00;0.60;;;;;;;22.30;57.03;96826.25;5039444;28;20236;-72
2022/07/11 09:53:03;;;;;;;0.98;0.68;;;;;;;22.35;57.01;96835.28;5038547;28;20565;-73
2022/07/11 09:55:30;;;;;;;0.47;0.40;;;;;;;22.38;55.04;96826.72;5039064;28;20235;-72
2022/07/11 09:57:57;;;;;;;0.30;0.30;;;;;;;22.18;52.69;96831.63;5037890;28;20205;-71
2022/07/11 10:00:24;;;;;;;0.82;0.40;;;;;;;22.61;53.59;96832.06;5037949;28;20221;-72
2022/07/11 10:02:52;;;;;;;1.27;0.30;;;;;;;22.44;54.31;96839.22;5038811;28;20201;-72
2022/07/11 10:05:19;;;;;;;1.00;0.32;;;;;;;22.61;53.43;96840.13;5039452;28;20208;-71
2022/07/11 10:07:45;;;;;;;0.30;0.30;;;;;;;22.22;50.42;96835.50;5039333;28;21107;-72
2022/07/11 10:10:13;;;;;;;0.38;0.35;;;;;;;21.99;53.66;96839.22;5039141;28;21049;-72
2022/07/11 10:12:40;;;;;;;0.40;0.40;;;;;;;21.81;53.56;96836.63;5037711;28;20225;-72
2022/07/11 10:15:10;;;;;;;0.60;0.50;;;;;;;21.97;53.59;96835.94;5039383;28;20209;-72
2022/07/11 10:17:44;;;;;;;0.40;0.40;;;;;;;22.40;55.35;96835.38;5040130;28;20205;-72
2022/07/11 10:20:17;;;;;;;0.45;0.40;;;;;;;22.61;55.49;96840.13;5038423;28;20736;-72
2022/07/11 10:22:48;;;;;;;2.83;0.75;;;;;;;22.78;52.92;96843.69;5038126;28;20201;-71
2022/07/11 10:25:23;;;;;;;1.13;0.65;;;;;;;23.19;53.13;96843.47;5039578;28;20209;-72
2022/07/11 10:28:10;;;;;;;0.35;0.30;;;;;;;23.42;52.27;96839.63;5039177;28;20204;-72
2022/07/11 10:30:46;;;;;;;0.55;0.50;;;;;;;23.24;51.38;96835.50;5039240;28;20229;-72
2022/07/11 10:33:12;;;;;;;1.40;0.70;;;;;;;23.16;52.80;96835.91;5038412;28;20787;-72
2022/07/11 10:35:41;;;;;;;1.00;0.80;;;;;;;22.66;52.35;96842.94;5038559;28;20205;-71
2022/07/11 10:38:07;;;;;;;1.45;0.80;;;;;;;22.93;55.11;96838.63;5036845;28;20202;-71
2022/07/11 10:40:45;;;;;;;2.58;0.75;;;;;;;23.03;55.18;96839.69;5039278;28;20225;-72
2022/07/11 10:43:11;;;;;;;0.50;0.50;;;;;;;22.80;52.68;96841.59;5036711;28;20197;-72
2022/07/11 10:45:56;;;;;;;0.77;0.70;;;;;;;22.80;53.71;96847.78;5037440;28;20204;-72
2022/07/11 10:48:23;;;;;;;2.58;0.80;;;;;;;22.57;55.26;96849.72;5039076;28;20219;-72
2022/07/11 10:51:01;;;;;;;0.70;0.70;;;;;;;22.64;56.84;96839.66;5038455;28;20221;-72
2022/07/11 10:53:32;;;;;;;2.05;0.80;;;;;;;22.56;55.80;96836.53;5037085;28;20232;-71
2022/07/11 10:56:10;;;;;;;1.17;0.80;;;;;;;22.77;54.23;96836.69;5037798;28;20699;-72
2022/07/11 10:58:42;;;;;;;2.38;0.77;;;;;;;23.01;52.68;96833.72;5037853;28;20220;-72
2022/07/11 11:01:10;;;;;;;1.02;0.82;;;;;;;22.92;53.47;96831.63;5037951;28;20232;-71
2022/07/11 11:03:36;;;;;;;1.80;0.80;;;;;;;23.03;57.13;96836.19;5037724;28;20232;-71
2022/07/11 11:06:03;;;;;;;0.93;0.70;;;;;;;22.74;52.46;96834.47;5037229;28;20206;-71
2022/07/11 11:08:47;;;;;;;1.50;0.90;;;;;;;23.23;50.81;96828.47;5037265;28;20197;-71
2022/07/11 11:11:38;;;;;;;2.83;0.93;;;;;;;23.39;53.52;96834.72;5038113;28;20294;-72
2022/07/11 11:14:25;;;;;;;2.83;0.80;;;;;;;23.38;51.71;96830.41;5037055;28;20236;-72
2022/07/11 11:16:52;;;;;;;1.55;0.60;;;;;;;23.49;52.03;96832.19;5036968;28;20212;-72
2022/07/11 11:19:50;;;;;;;1.10;0.80;;;;;;;23.36;49.89;96827.13;5034298;28;20231;-71
2022/07/11 11:22:18;;;;;;;1.38;0.70;;;;;;;23.15;51.63;96831.56;5037802;28;20213;-72
2022/07/11 11:24:47;;;;;;;1.33;0.70;;;;;;;23.07;54.71;96838.13;5036564;28;20205;-72
2022/07/11 11:27:21;;;;;;;1.30;0.90;;;;;;;23.06;53.98;96843.75;5038405;28;20216;-72
2022/07/11 11:29:50;;;;;;;1.52;0.80;;;;;;;22.88;52.28;96842.03;5037629;28;20711;-71
2022/07/11 11:32:17;;;;;;;1.00;0.80;;;;;;;22.81;56.39;96833.28;5035092;28;20534;-72
2022/07/11 11:34:44;;;;;;;2.05;0.80;;;;;;;22.29;53.01;96836.19;5035904;28;20606;-72
2022/07/11 11:37:11;;;;;;;0.65;0.60;;;;;;;22.37;56.68;96843.91;5034184;28;20213;-72
2022/07/11 11:39:40;;;;;;;0.95;0.75;;;;;;;22.21;57.53;96844.59;5036523;28;20232;-71
2022/07/11 11:42:12;;;;;;;1.33;0.93;;;;;;;22.28;59.06;96844.50;5037094;28;20252;-73
2022/07/11 11:44:52;;;;;;;2.83;0.85;;;;;;;22.39;57.78;96835.59;5034349;28;20209;-74
2022/07/11 11:47:19;;;;;;;2.05;1.08;;;;;;;22.00;56.03;96840.84;5033188;28;20197;-74
2022/07/11 11:49:47;;;;;;;6.70;0.98;;;;;;;22.27;59.31;96838.28;5032839;28;20221;-73
2022/07/11 11:52:14;;;;;;;1.73;1.10;;;;;;;22.49;57.35;96843.88;5035485;28;20212;-71